Time;durP1;ratioP1;P1;durP2;ratioP2;P2;SDS_P1;SDS_P2;PMS_P1;PMS_P2;Temp;Humidity;BMP_temperature;BMP_pressure;BME280_temperature;BME280_humidity;BME280_pressure;Samples;Min_cycle;Max_cycle;Signal;HPM_P1;HPM_P2
2022/09/05 00:02:45;;;;;;;0.10;0.10;;;20.20;99.90;21.90;101728.00;;;;5023889;28;20301;-70
2022/09/05 00:05:54;;;;;;;0.10;0.10;;;20.20;99.90;22.10;101737.00;;;;5033883;28;20443;-69
2022/09/05 00:08:45;;;;;;;0.20;0.20;;;20.40;99.90;22.20;101735.00;;;;5034919;28;20197;-69
2022/09/05 00:11:38;;;;;;;0.10;0.10;;;20.40;99.90;22.10;101731.00;;;;5050046;28;20189;-70
2022/09/05 00:14:41;;;;;;;0.10;0.10;;;20.40;99.90;21.90;101727.00;;;;5034222;28;20280;-70
2022/09/05 00:17:35;;;;;;;0.10;0.10;;;20.30;99.90;21.80;101720.00;;;;5033544;28;20186;-70
2022/09/05 00:20:26;;;;;;;0.20;0.20;;;20.20;99.90;22.10;101735.00;;;;5017700;28;20190;-70
2022/09/05 00:23:20;;;;;;;0.20;0.20;;;20.40;99.90;22.00;101687.00;;;;5034057;28;20193;-70
2022/09/05 00:26:19;;;;;;;0.10;0.10;;;20.40;99.90;22.10;101712.00;;;;5035240;28;20645;-70
2022/09/05 00:29:14;;;;;;;0.10;0.10;;;20.40;99.90;22.20;101727.00;;;;5034041;28;20239;-70
2022/09/05 00:32:13;;;;;;;0.20;0.20;;;20.40;99.90;22.20;101722.00;;;;5034826;28;20225;-69
2022/09/05 00:35:32;;;;;;;0.10;0.10;;;20.40;99.90;22.10;101720.00;;;;5022793;28;20278;-70
2022/09/05 00:38:10;;;;;;;0.10;0.10;;;20.40;99.90;22.30;101671.00;;;;5035000;28;20191;-70
2022/09/05 00:41:01;;;;;;;0.10;0.10;;;20.50;99.90;22.10;101725.00;;;;5016266;28;20268;-70
2022/09/05 00:43:41;;;;;;;0.10;0.10;;;20.50;99.90;22.10;101728.00;;;;5033553;28;20228;-70
2022/09/05 00:46:21;;;;;;;0.10;0.10;;;20.60;99.90;22.10;101717.00;;;;5033470;28;20186;-70
2022/09/05 00:49:08;;;;;;;0.23;0.23;;;20.40;99.90;22.10;101708.00;;;;5017154;28;20186;-70
2022/09/05 00:52:01;;;;;;;0.10;0.10;;;20.50;99.90;22.10;101694.00;;;;5033517;28;20219;-70
2022/09/05 00:55:09;;;;;;;0.40;0.40;;;20.40;99.90;22.20;101711.00;;;;5016688;28;20186;-70
2022/09/05 00:57:58;;;;;;;0.10;0.10;;;20.40;99.90;21.90;101703.00;;;;5033841;28;20190;-70
2022/09/05 01:00:58;;;;;;;0.20;0.20;;;20.30;99.90;21.60;101685.00;;;;5033357;28;20187;-70
2022/09/05 01:03:33;;;;;;;0.20;0.20;;;20.20;99.90;21.80;101656.00;;;;5030341;28;20276;-70
2022/09/05 01:06:52;;;;;;;1.70;1.60;;;20.10;99.90;21.80;101693.00;;;;5033945;28;20552;-70
2022/09/05 01:10:03;;;;;;;0.10;0.10;;;20.10;99.90;21.60;101698.00;;;;5014038;28;20194;-70
2022/09/05 01:12:56;;;;;;;0.20;0.20;;;20.10;99.90;21.70;101637.00;;;;5011182;28;20216;-70
2022/09/05 01:15:53;;;;;;;4.10;0.70;;;20.00;99.90;21.70;101674.00;;;;5034578;28;20186;-70
2022/09/05 01:18:43;;;;;;;0.43;0.30;;;20.00;99.90;21.60;101679.00;;;;5034224;28;20223;-70
2022/09/05 01:21:25;;;;;;;0.20;0.20;;;20.00;99.90;21.60;101674.00;;;;5034074;28;20175;-69
2022/09/05 01:24:26;;;;;;;0.47;0.47;;;20.00;99.90;21.60;101682.00;;;;5032257;28;20650;-70
2022/09/05 01:27:32;;;;;;;0.30;0.30;;;20.00;99.90;21.60;101682.00;;;;5032689;28;20189;-70
2022/09/05 01:30:12;;;;;;;0.10;0.10;;;20.10;99.90;21.70;101676.00;;;;5032482;28;20256;-71
2022/09/05 01:32:57;;;;;;;0.25;0.25;;;20.10;99.90;21.80;101688.00;;;;5031700;28;20221;-71
2022/09/05 01:35:52;;;;;;;0.10;0.10;;;20.00;99.90;21.60;101663.00;;;;5033031;28;20250;-70
2022/09/05 01:38:54;;;;;;;0.10;0.10;;;20.00;99.90;21.60;101669.00;;;;5033731;28;20185;-71
2022/09/05 01:41:56;;;;;;;0.20;0.20;;;20.00;99.90;21.80;101679.00;;;;5033492;28;20260;-71
2022/09/05 01:45:11;;;;;;;0.20;0.20;;;20.00;99.90;22.00;101670.00;;;;5032671;28;20172;-71
2022/09/05 01:48:06;;;;;;;0.13;0.13;;;20.10;99.90;21.80;101680.00;;;;5025372;28;20206;-70
2022/09/05 01:51:07;;;;;;;0.20;0.20;;;20.20;99.90;21.40;101667.00;;;;5016178;28;20189;-70
2022/09/05 01:54:12;;;;;;;0.20;0.20;;;20.10;99.90;21.70;101657.00;;;;5031991;28;20204;-70
2022/09/05 01:57:29;;;;;;;0.10;0.10;;;20.00;99.90;21.60;101633.00;;;;5032575;28;20193;-70
2022/09/05 02:00:09;;;;;;;0.20;0.20;;;19.90;99.90;21.20;101662.00;;;;4996958;28;20636;-71
2022/09/05 02:03:03;;;;;;;0.20;0.20;;;19.90;99.90;21.40;101668.00;;;;5015719;28;20287;-71
2022/09/05 02:06:06;;;;;;;0.37;0.37;;;19.90;99.90;21.60;101666.00;;;;5032418;28;20198;-70
2022/09/05 02:08:38;;;;;;;0.20;0.20;;;20.00;99.90;21.90;101673.00;;;;5032605;28;20637;-70
2022/09/05 02:11:10;;;;;;;0.20;0.20;;;20.10;99.90;21.40;101659.00;;;;5033313;28;20184;-70
2022/09/05 02:13:38;;;;;;;1.30;0.40;;;19.90;99.90;21.60;101665.00;;;;5015880;28;20207;-70
2022/09/05 02:16:19;;;;;;;0.17;0.17;;;19.90;99.90;21.50;101668.00;;;;5033483;28;20252;-70
2022/09/05 02:19:09;;;;;;;0.20;0.20;;;20.00;99.90;21.30;101657.00;;;;5033366;28;20188;-70
2022/09/05 02:22:19;;;;;;;0.17;0.17;;;19.80;99.90;21.50;101663.00;;;;5033314;28;20232;-70
2022/09/05 02:24:54;;;;;;;0.20;0.20;;;19.90;99.90;21.30;101635.00;;;;5020502;28;20196;-70
2022/09/05 02:27:52;;;;;;;0.20;0.20;;;19.80;99.90;21.40;101652.00;;;;5015418;28;20268;-70
2022/09/05 02:30:23;;;;;;;0.20;0.20;;;19.80;99.90;21.20;101652.00;;;;5031737;28;20194;-70
2022/09/05 02:33:13;;;;;;;0.40;0.40;;;19.80;99.90;21.20;101649.00;;;;5031902;28;20221;-71
2022/09/05 02:36:20;;;;;;;0.20;0.20;;;19.70;99.90;21.40;101652.00;;;;5014235;28;20176;-70
2022/09/05 02:39:12;;;;;;;0.27;0.27;;;19.60;99.90;21.40;101661.00;;;;5031536;28;20750;-70
2022/09/05 02:41:55;;;;;;;0.43;0.43;;;19.80;99.90;21.20;101621.00;;;;5033316;28;20188;-70
2022/09/05 02:44:50;;;;;;;0.20;0.20;;;19.70;99.90;20.80;101643.00;;;;5030959;28;20285;-70
2022/09/05 02:47:28;;;;;;;0.50;0.50;;;19.70;99.90;21.00;101613.00;;;;5015381;28;20203;-70
2022/09/05 02:50:37;;;;;;;0.30;0.30;;;19.70;99.90;20.90;101631.00;;;;5015504;28;20175;-70
2022/09/05 02:53:09;;;;;;;1.30;0.57;;;19.60;99.90;20.30;101607.00;;;;5031088;28;20215;-71
2022/09/05 02:55:59;;;;;;;0.20;0.20;;;19.40;99.90;19.90;101606.00;;;;5015143;28;20186;-69
2022/09/05 02:58:53;;;;;;;0.50;0.50;;;19.20;99.90;19.90;101600.00;;;;5030764;28;20180;-70
2022/09/05 03:01:58;;;;;;;0.30;0.30;;;19.10;99.90;20.20;101614.00;;;;5031323;28;20654;-70
2022/09/05 03:05:37;;;;;;;0.30;0.30;;;19.20;99.90;20.40;101606.00;;;;5014529;28;20188;-70
2022/09/05 03:08:33;;;;;;;0.40;0.40;;;19.10;99.90;20.00;101590.00;;;;4987843;28;20578;-70
2022/09/05 03:11:50;;;;;;;0.30;0.30;;;19.10;99.90;19.90;101594.00;;;;5048279;28;20190;-70
2022/09/05 03:14:42;;;;;;;0.30;0.30;;;19.00;99.90;20.00;101592.00;;;;5031114;28;20199;-70
2022/09/05 03:17:40;;;;;;;0.30;0.30;;;18.90;99.90;20.00;101594.00;;;;5024274;28;20187;-70
2022/09/05 03:20:12;;;;;;;0.30;0.30;;;18.90;99.90;19.80;101547.00;;;;5020650;28;20197;-69
2022/09/05 03:23:16;;;;;;;0.33;0.33;;;18.90;99.90;20.10;101582.00;;;;5033003;28;20290;-70
2022/09/05 03:26:25;;;;;;;7.10;0.77;;;19.00;99.90;19.50;101588.00;;;;5035077;28;20187;-69
2022/09/05 03:29:30;;;;;;;0.40;0.40;;;19.00;99.90;19.80;101593.00;;;;5034854;28;20271;-70
2022/09/05 03:32:33;;;;;;;0.97;0.87;;;18.90;99.90;19.50;101569.00;;;;5011238;28;20219;-70
2022/09/05 03:36:01;;;;;;;0.60;0.60;;;18.80;99.90;19.60;101548.00;;;;5036188;28;20179;-69
2022/09/05 03:39:04;;;;;;;6.60;1.43;;;18.80;99.90;19.70;101588.00;;;;5034871;28;20197;-70
2022/09/05 03:41:57;;;;;;;0.20;0.20;;;18.80;99.90;19.50;101585.00;;;;5034209;28;20192;-71
2022/09/05 03:45:09;;;;;;;0.27;0.27;;;18.80;99.90;19.80;101581.00;;;;5036071;28;20197;-71
2022/09/05 03:48:00;;;;;;;1.10;1.10;;;18.80;99.90;19.60;101595.00;;;;5035912;28;20188;-71
2022/09/05 03:50:50;;;;;;;0.20;0.20;;;18.80;99.90;19.40;101595.00;;;;5018150;28;20616;-71
2022/09/05 03:54:23;;;;;;;0.27;0.27;;;18.70;99.90;19.80;101593.00;;;;5033447;28;20291;-71
2022/09/05 03:57:11;;;;;;;0.20;0.20;;;18.90;99.90;19.80;101603.00;;;;5018501;28;20363;-71
2022/09/05 04:00:09;;;;;;;0.20;0.20;;;18.90;99.90;19.70;101592.00;;;;5034407;28;20192;-71
2022/09/05 04:02:57;;;;;;;0.20;0.20;;;18.80;99.90;19.30;101587.00;;;;5018239;28;20703;-71
2022/09/05 04:05:42;;;;;;;0.30;0.30;;;18.70;99.90;19.60;101587.00;;;;5033717;28;20705;-70
2022/09/05 04:08:29;;;;;;;0.40;0.40;;;18.70;99.90;19.70;101590.00;;;;5017879;28;20207;-70
2022/09/05 04:11:09;;;;;;;0.30;0.30;;;18.80;99.90;19.80;101594.00;;;;5018797;28;20167;-70
2022/09/05 04:14:36;;;;;;;0.50;0.50;;;18.90;99.90;19.60;101533.00;;;;5017366;28;20192;-70
2022/09/05 04:17:34;;;;;;;1.10;1.10;;;18.80;99.90;19.60;101593.00;;;;5020880;28;20199;-70
2022/09/05 04:20:14;;;;;;;0.50;0.50;;;18.90;99.90;19.70;101591.00;;;;5017952;28;20235;-70
2022/09/05 04:23:04;;;;;;;0.30;0.30;;;18.90;99.90;19.50;101597.00;;;;5032789;28;20194;-70
2022/09/05 04:25:54;;;;;;;0.20;0.20;;;18.70;99.90;19.50;101595.00;;;;5034149;28;20662;-69
2022/09/05 04:29:04;;;;;;;0.30;0.30;;;18.70;99.90;19.20;101555.00;;;;5034043;28;20634;-70
2022/09/05 04:32:18;;;;;;;0.30;0.30;;;18.60;99.90;19.30;101593.00;;;;5033548;28;20258;-70
2022/09/05 04:35:20;;;;;;;0.20;0.20;;;18.70;99.90;19.60;101600.00;;;;5033706;28;20180;-70
2022/09/05 04:38:04;;;;;;;5.17;4.83;;;18.80;99.90;19.10;101582.00;;;;5033860;28;20186;-70
2022/09/05 04:40:41;;;;;;;0.20;0.20;;;18.70;99.90;19.50;101600.00;;;;5033747;28;20339;-69
2022/09/05 04:43:31;;;;;;;0.70;0.70;;;18.70;99.90;19.40;101605.00;;;;5017454;28;20292;-69
2022/09/05 04:46:46;;;;;;;0.40;0.40;;;18.60;99.90;19.90;101605.00;;;;5032619;28;20675;-70
2022/09/05 04:49:30;;;;;;;2.47;2.40;;;18.80;99.90;19.60;101564.00;;;;5017045;28;20188;-70
2022/09/05 04:52:26;;;;;;;0.63;0.63;;;18.80;99.90;19.60;101593.00;;;;5049527;28;20244;-70
2022/09/05 04:55:08;;;;;;;0.70;0.70;;;18.80;99.90;19.60;101605.00;;;;5032186;28;20184;-70
2022/09/05 04:57:59;;;;;;;0.53;0.53;;;18.80;99.90;20.00;101608.00;;;;5016968;28;20179;-70
2022/09/05 05:00:45;;;;;;;0.30;0.30;;;18.90;99.90;19.80;101614.00;;;;5029797;28;20196;-70
2022/09/05 05:03:25;;;;;;;0.40;0.40;;;18.90;99.90;20.00;101606.00;;;;5032062;28;20281;-70
2022/09/05 05:05:57;;;;;;;0.30;0.30;;;18.90;99.90;19.90;101556.00;;;;5016831;28;21024;-70
2022/09/05 05:08:32;;;;;;;0.77;0.70;;;19.00;99.90;19.80;101616.00;;;;5032617;28;20180;-70
2022/09/05 05:11:29;;;;;;;0.40;0.40;;;18.90;99.90;19.90;101617.00;;;;5032869;28;20205;-70
2022/09/05 05:14:30;;;;;;;0.60;0.60;;;18.90;99.90;20.00;101625.00;;;;5034321;28;20248;-70
2022/09/05 05:17:15;;;;;;;0.20;0.20;;;19.10;99.90;20.20;101624.00;;;;5033046;28;20202;-70
2022/09/05 05:19:48;;;;;;;1.47;1.37;;;19.10;99.90;20.30;101635.00;;;;5033122;28;20183;-70
2022/09/05 05:22:20;;;;;;;0.43;0.43;;;19.20;99.90;20.20;101643.00;;;;5015886;28;20192;-70
2022/09/05 05:24:59;;;;;;;0.30;0.30;;;19.30;99.90;20.20;101637.00;;;;5032576;28;20217;-70
2022/09/05 05:27:43;;;;;;;0.40;0.40;;;19.40;99.90;19.70;101609.00;;;;5033011;28;20201;-70
2022/09/05 05:30:23;;;;;;;0.53;0.53;;;19.20;99.90;20.40;101635.00;;;;5032775;28;20184;-70
2022/09/05 05:33:04;;;;;;;0.20;0.20;;;19.30;99.90;20.60;101602.00;;;;5032307;28;20231;-70
2022/09/05 05:35:33;;;;;;;0.53;0.50;;;19.50;99.90;20.20;101633.00;;;;5016933;28;20185;-70
2022/09/05 05:38:30;;;;;;;0.30;0.30;;;19.50;99.90;20.30;101636.00;;;;5016157;28;20555;-70
2022/09/05 05:41:06;;;;;;;0.20;0.20;;;19.50;99.90;20.30;101647.00;;;;5031305;28;20208;-71
2022/09/05 05:43:43;;;;;;;0.50;0.50;;;19.60;99.90;20.50;101641.00;;;;5033847;28;20296;-71
2022/09/05 05:46:57;;;;;;;0.60;0.60;;;19.70;99.90;20.70;101655.00;;;;5015646;28;20186;-71
2022/09/05 05:50:00;;;;;;;0.20;0.20;;;19.90;99.90;20.80;101601.00;;;;5031663;28;20194;-71
2022/09/05 05:52:59;;;;;;;0.23;0.23;;;19.90;99.90;20.80;101639.00;;;;5015557;28;20284;-71
2022/09/05 05:56:09;;;;;;;2.20;0.97;;;19.90;99.90;21.00;101649.00;;;;5032025;28;20181;-71
2022/09/05 05:59:24;;;;;;;0.20;0.20;;;20.00;99.90;20.70;101601.00;;;;5032181;28;20196;-71
2022/09/05 06:02:11;;;;;;;0.67;0.67;;;20.00;99.90;20.90;101653.00;;;;5032250;28;20188;-72
2022/09/05 06:05:12;;;;;;;1.47;1.13;;;20.00;99.90;20.80;101644.00;;;;5031956;28;20186;-71
2022/09/05 06:08:03;;;;;;;0.63;0.63;;;19.90;99.90;21.10;101663.00;;;;5031253;28;20262;-71
2022/09/05 06:11:16;;;;;;;0.60;0.60;;;20.00;99.90;21.20;101675.00;;;;5032285;28;20228;-71
2022/09/05 06:14:34;;;;;;;0.20;0.20;;;20.30;99.90;21.90;101688.00;;;;5015550;28;20191;-71
2022/09/05 06:17:24;;;;;;;0.20;0.20;;;20.80;99.90;22.20;101678.00;;;;5031552;28;20206;-70
2022/09/05 06:20:36;;;;;;;0.20;0.20;;;20.90;99.90;22.30;101708.00;;;;5016011;28;20189;-70
2022/09/05 06:23:32;;;;;;;0.20;0.20;;;21.00;99.90;22.10;101715.00;;;;5014366;28;20179;-70
2022/09/05 06:26:31;;;;;;;0.20;0.20;;;21.10;99.90;22.20;101695.00;;;;5033360;28;20225;-70
2022/09/05 06:29:39;;;;;;;0.20;0.20;;;21.00;99.90;22.10;101690.00;;;;5032145;28;20175;-70
2022/09/05 06:32:56;;;;;;;0.10;0.10;;;21.00;99.90;23.30;101741.00;;;;5032132;28;20215;-71
2022/09/05 06:36:10;;;;;;;0.10;0.10;;;21.50;99.90;23.50;101756.00;;;;5015314;28;20183;-71
2022/09/05 06:38:46;;;;;;;0.10;0.10;;;22.10;99.90;23.30;101762.00;;;;5031997;28;20669;-71
2022/09/05 06:41:48;;;;;;;0.10;0.10;;;22.20;99.90;23.20;101768.00;;;;5015376;28;20537;-71
2022/09/05 06:44:31;;;;;;;0.10;0.10;;;22.10;99.90;23.80;101779.00;;;;5032004;28;20226;-71
2022/09/05 06:47:05;;;;;;;0.10;0.10;;;22.10;99.90;23.80;101789.00;;;;5032197;28;20282;-71
2022/09/05 06:50:13;;;;;;;0.10;0.10;;;22.50;99.90;25.20;101807.00;;;;5031238;28;20528;-71
2022/09/05 06:53:15;;;;;;;0.10;0.10;;;23.10;99.90;25.10;101821.00;;;;5015227;28;20194;-71
2022/09/05 06:56:17;;;;;;;0.10;0.10;;;24.00;99.90;24.70;101817.00;;;;5035913;28;20590;-71
2022/09/05 06:59:44;;;;;;;0.10;0.10;;;23.70;99.90;24.20;101830.00;;;;5019349;28;20190;-71
2022/09/05 07:02:24;;;;;;;0.25;0.25;;;23.50;99.90;24.40;101832.00;;;;5019235;28;20552;-69
2022/09/05 07:05:28;;;;;;;0.10;0.10;;;23.20;99.90;24.50;101839.00;;;;5035419;28;20637;-71
2022/09/05 07:08:25;;;;;;;0.10;0.10;;;23.30;99.90;25.90;101842.00;;;;5034532;28;20201;-69
2022/09/05 07:11:19;;;;;;;0.10;0.10;;;24.20;99.90;25.10;101841.00;;;;5032101;28;20554;-69
2022/09/05 07:14:17;;;;;;;0.17;0.17;;;24.30;99.90;27.20;101843.00;;;;4998974;28;20199;-70
2022/09/05 07:17:16;;;;;;;0.40;0.40;;;25.10;99.90;28.50;101853.00;;;;5029818;28;20662;-71
2022/09/05 07:19:59;;;;;;;0.32;0.32;;;26.60;99.90;28.20;101863.00;;;;5032912;28;20197;-70
2022/09/05 07:22:35;;;;;;;0.10;0.10;;;26.70;99.90;27.00;101871.00;;;;5035836;28;20159;-70
2022/09/05 07:25:28;;;;;;;0.10;0.10;;;26.20;99.90;28.50;101875.00;;;;5035115;28;20256;-70
2022/09/05 07:28:11;;;;;;;0.10;0.10;;;26.50;99.90;29.10;101858.00;;;;5034504;28;20205;-72
2022/09/05 07:30:54;;;;;;;0.10;0.10;;;27.50;99.90;28.40;101890.00;;;;5068239;28;20206;-72
2022/09/05 07:33:29;;;;;;;0.05;0.05;;;27.20;99.90;29.60;101879.00;;;;5035282;28;20305;-73
2022/09/05 07:36:11;;;;;;;0.82;0.82;;;27.60;99.90;28.10;101887.00;;;;5034994;28;20178;-73
2022/09/05 07:38:38;;;;;;;0.45;0.45;;;27.20;99.90;28.20;101880.00;;;;5018302;28;20286;-72
2022/09/05 07:41:31;;;;;;;0.17;0.13;;;26.90;99.90;27.00;101876.00;;;;5034806;28;20175;-73
2022/09/05 07:44:23;;;;;;;0.10;0.10;;;26.40;99.90;25.40;101824.00;;;;5018095;28;20203;-71
2022/09/05 07:47:05;;;;;;;0.75;0.75;;;24.90;99.90;24.70;101851.00;;;;5034854;28;20178;-72
2022/09/05 07:49:36;;;;;;;0.10;0.10;;;24.30;99.90;25.40;101820.00;;;;5034665;28;20195;-72
2022/09/05 07:52:16;;;;;;;0.10;0.10;;;24.20;99.90;25.90;101869.00;;;;5034376;28;20219;-72
2022/09/05 07:54:51;;;;;;;0.20;0.20;;;24.60;99.90;26.50;101838.00;;;;5033862;28;20550;-72
2022/09/05 07:57:23;;;;;;;0.25;0.25;;;25.00;99.90;26.40;101881.00;;;;5014757;28;20565;-70
2022/09/05 08:00:20;;;;;;;0.10;0.10;;;25.40;99.90;27.70;101886.00;;;;5018941;28;20596;-71
2022/09/05 08:03:24;;;;;;;0.75;0.75;;;26.30;99.90;27.40;101906.00;;;;5033093;28;20178;-70
2022/09/05 08:05:53;;;;;;;0.10;0.10;;;26.60;99.90;28.50;101910.00;;;;5066709;28;20194;-70
2022/09/05 08:08:26;;;;;;;0.20;0.20;;;27.00;99.90;27.20;101909.00;;;;5021918;28;20183;-70
2022/09/05 08:11:02;;;;;;;0.10;0.10;;;26.70;99.90;28.90;101914.00;;;;5014370;28;20650;-71
2022/09/05 08:13:44;;;;;;;0.40;0.40;;;27.10;99.90;29.80;101906.00;;;;5014524;28;20222;-72
2022/09/05 08:16:19;;;;;;;0.20;0.20;;;28.10;99.90;28.70;101901.00;;;;5027194;28;20548;-69
2022/09/05 08:19:08;;;;;;;0.20;0.20;;;28.10;99.90;28.50;101890.00;;;;5034344;28;20170;-71
2022/09/05 08:21:50;;;;;;;0.15;0.15;;;28.00;99.90;28.80;101863.00;;;;5034705;28;20276;-69
2022/09/05 08:24:42;;;;;;;0.10;0.10;;;27.60;99.90;27.90;101897.00;;;;5013260;28;20179;-69
2022/09/05 08:27:24;;;;;;;0.10;0.10;;;27.30;99.90;28.70;101897.00;;;;5014128;28;20191;-69
2022/09/05 08:30:01;;;;;;;3.05;0.70;;;27.50;99.90;29.10;101893.00;;;;5014333;28;20210;-69
2022/09/05 08:32:44;;;;;;;1.45;0.40;;;27.80;99.90;28.50;101893.00;;;;5046864;28;20676;-69
2022/09/05 08:35:21;;;;;;;0.20;0.20;;;27.80;99.90;28.80;101895.00;;;;5015382;28;20207;-69
2022/09/05 08:37:50;;;;;;;0.10;0.10;;;27.70;99.90;28.90;101896.00;;;;5014117;28;20183;-67
2022/09/05 08:40:34;;;;;;;0.10;0.10;;;27.90;99.90;29.10;101894.00;;;;5043449;23;20280;-70
2022/09/05 08:43:39;;;;;;;0.20;0.20;;;28.00;99.90;29.30;101898.00;;;;5034004;28;20209;-69
2022/09/05 08:46:28;;;;;;;0.10;0.10;;;28.40;99.90;29.60;101909.00;;;;5033904;28;20175;-69
2022/09/05 08:49:32;;;;;;;0.28;0.28;;;28.50;99.90;28.60;101914.00;;;;5034043;28;20202;-69
2022/09/05 08:52:29;;;;;;;0.10;0.10;;;28.00;99.90;28.90;101914.00;;;;5033750;28;20195;-69
2022/09/05 08:55:40;;;;;;;0.10;0.10;;;27.80;99.90;29.60;101882.00;;;;5034019;28;20186;-69
2022/09/05 08:58:34;;;;;;;0.10;0.10;;;28.40;99.90;30.20;101895.00;;;;5050226;28;20198;-70
2022/09/05 09:01:32;;;;;;;0.10;0.10;;;29.10;99.90;30.50;101897.00;;;;5050138;28;20198;-70
2022/09/05 09:04:20;;;;;;;0.47;0.47;;;29.20;99.90;30.80;101888.00;;;;5048901;28;20214;-69
2022/09/05 09:07:27;;;;;;;2.45;0.68;;;29.70;99.90;32.20;101854.00;;;;5048708;28;20200;-70
2022/09/05 09:10:26;;;;;;;0.10;0.10;;;30.50;99.90;30.70;101856.00;;;;5029782;28;20260;-70
2022/09/05 09:13:51;;;;;;;0.17;0.17;;;30.20;99.90;31.90;101842.00;;;;5031796;28;20286;-70
2022/09/05 09:16:38;;;;;;;0.10;0.10;;;30.40;99.90;31.70;101810.00;;;;4998311;28;20621;-70
2022/09/05 09:19:41;;;;;;;0.15;0.15;;;30.70;99.90;30.80;101835.00;;;;5032105;28;20656;-70
2022/09/05 09:22:38;;;;;;;0.10;0.10;;;30.00;99.90;29.40;101840.00;;;;5033047;28;20202;-70
2022/09/05 09:25:08;;;;;;;0.10;0.10;;;29.40;99.90;29.60;101820.00;;;;5027298;28;20606;-70
2022/09/05 09:27:46;;;;;;;1.08;1.08;;;28.70;99.90;30.30;101843.00;;;;5046445;28;20274;-70
2022/09/05 09:30:55;;;;;;;0.43;0.43;;;28.90;99.90;30.00;101833.00;;;;5032647;28;20189;-70
2022/09/05 09:34:07;;;;;;;0.20;0.20;;;28.90;99.90;31.80;101830.00;;;;5032122;28;20190;-70
2022/09/05 09:37:26;;;;;;;0.52;0.20;;;29.80;99.90;31.70;101823.00;;;;5020884;28;20183;-70
2022/09/05 09:40:27;;;;;;;0.13;0.13;;;30.50;99.90;31.60;101817.00;;;;5023504;28;20643;-70
2022/09/05 09:43:26;;;;;;;0.10;0.10;;;30.70;99.90;31.80;101791.00;;;;5011367;28;20207;-70
2022/09/05 09:46:14;;;;;;;0.10;0.10;;;30.70;99.90;32.10;101809.00;;;;5016308;28;20256;-70
2022/09/05 09:49:08;;;;;;;1.08;0.60;;;31.00;99.30;33.00;101807.00;;;;5032318;28;20195;-70
2022/09/05 09:52:18;;;;;;;0.10;0.10;;;31.40;98.80;32.50;101806.00;;;;5032723;28;20270;-70
2022/09/05 09:55:31;;;;;;;0.10;0.10;;;31.60;97.70;31.70;101800.00;;;;5031202;28;20627;-71
2022/09/05 09:58:16;;;;;;;0.10;0.10;;;31.10;97.70;32.30;101783.00;;;;5013903;28;20254;-70
2022/09/05 10:01:07;;;;;;;0.10;0.10;;;31.20;97.30;32.40;101804.00;;;;5029068;28;20188;-70
2022/09/05 10:03:56;;;;;;;0.10;0.10;;;31.50;96.90;33.20;101772.00;;;;5012330;28;20219;-71
2022/09/05 10:07:06;;;;;;;0.10;0.10;;;31.70;97.10;33.60;101792.00;;;;5029265;28;20213;-70
2022/09/05 10:10:17;;;;;;;0.20;0.20;;;32.10;96.20;32.80;101795.00;;;;5048040;28;20194;-71
2022/09/05 10:13:50;;;;;;;0.55;0.55;;;32.00;95.50;32.60;101791.00;;;;5031385;28;20202;-69
2022/09/05 10:16:46;;;;;;;0.10;0.10;;;31.70;95.30;32.10;101805.00;;;;5030494;28;20183;-72
2022/09/05 10:19:48;;;;;;;0.30;0.30;;;31.10;95.70;31.80;101784.00;;;;5015081;28;20195;-71
2022/09/05 10:34:17;;;;;;;0.22;0.22;;;29.30;98.50;31.20;101813.00;;;;5085917;28;20539;-73
2022/09/05 10:37:39;;;;;;;0.10;0.10;;;29.80;98.70;31.40;101801.00;;;;5066879;28;20194;-71
2022/09/05 10:40:24;;;;;;;2.28;2.17;;;30.20;98.00;29.90;101819.00;;;;5066101;28;20281;-71
2022/09/05 10:43:09;;;;;;;0.10;0.10;;;29.50;98.30;29.80;101814.00;;;;5033268;28;20270;-71
2022/09/05 10:46:22;;;;;;;0.20;0.20;;;29.10;99.20;29.70;101820.00;;;;5049452;28;20182;-71
2022/09/05 10:48:58;;;;;;;0.45;0.30;;;28.90;99.50;30.20;101821.00;;;;5048722;28;20650;-71
2022/09/05 10:51:59;;;;;;;0.10;0.10;;;28.90;99.90;30.00;101824.00;;;;5066151;28;20212;-71
2022/09/05 10:54:54;;;;;;;0.52;0.52;;;28.90;99.90;30.80;101822.00;;;;5048503;28;20189;-71
2022/09/05 10:58:25;;;;;;;0.20;0.20;;;29.00;99.90;30.80;101820.00;;;;5050092;28;20178;-71
2022/09/05 11:01:36;;;;;;;0.20;0.20;;;30.00;98.90;31.60;101795.00;;;;5039526;28;20684;-71
2022/09/05 11:04:17;;;;;;;0.10;0.10;;;30.30;98.00;31.50;101807.00;;;;5048419;28;20197;-71
2022/09/05 11:07:42;;;;;;;0.10;0.10;;;30.30;98.00;32.00;101806.00;;;;5064858;28;20182;-71
2022/09/05 11:10:27;;;;;;;0.10;0.10;;;30.40;98.00;31.30;101805.00;;;;5050027;28;20178;-71
2022/09/05 11:13:23;;;;;;;0.10;0.10;;;30.10;98.70;33.10;101797.00;;;;5049093;28;20197;-71
2022/09/05 11:16:22;;;;;;;0.10;0.10;;;31.00;97.80;31.70;101789.00;;;;5064878;28;20556;-71
2022/09/05 11:19:19;;;;;;;0.20;0.20;;;30.90;97.00;31.40;101806.00;;;;5048653;28;20182;-71
2022/09/05 11:22:07;;;;;;;0.20;0.20;;;30.20;97.80;29.70;101816.00;;;;5065129;28;20634;-71
2022/09/05 11:24:54;;;;;;;0.30;0.30;;;29.40;98.40;30.50;101787.00;;;;5048971;28;20640;-71
2022/09/05 11:27:51;;;;;;;0.90;0.45;;;29.50;98.80;31.00;101797.00;;;;5048519;28;20699;-71
2022/09/05 11:30:26;;;;;;;0.20;0.20;;;29.60;98.70;30.60;101807.00;;;;5064937;28;20183;-71
2022/09/05 11:33:22;;;;;;;0.63;0.63;;;29.60;98.40;31.50;101799.00;;;;5064359;28;20225;-74
2022/09/05 11:35:55;;;;;;;0.52;0.52;;;30.30;97.80;30.60;101805.00;;;;5064697;28;20178;-71
2022/09/05 11:39:16;;;;;;;0.10;0.10;;;29.90;98.30;32.60;101786.00;;;;5064447;28;20265;-71
2022/09/05 11:42:45;;;;;;;0.10;0.10;;;30.60;97.90;33.80;101756.00;;;;5049493;28;20645;-71
2022/09/05 11:45:25;;;;;;;0.30;0.30;;;32.10;96.60;30.90;101780.00;;;;5035671;28;20190;-71
2022/09/05 11:48:24;;;;;;;0.20;0.20;;;30.80;96.30;30.50;101798.00;;;;5034929;28;20626;-72
2022/09/05 11:51:58;;;;;;;0.10;0.10;;;29.90;97.10;31.20;101790.00;;;;5034907;28;20209;-71
2022/09/05 11:54:42;;;;;;;0.30;0.30;;;30.00;97.40;32.60;101771.00;;;;5014771;28;20241;-71
2022/09/05 11:57:35;;;;;;;0.10;0.10;;;30.70;96.90;32.70;101765.00;;;;5034905;28;20183;-71
2022/09/05 12:00:22;;;;;;;0.20;0.20;;;31.30;96.40;32.10;101764.00;;;;5034839;28;20647;-71
2022/09/05 12:03:25;;;;;;;5.38;0.90;;;31.30;95.80;32.70;101764.00;;;;5034475;28;20284;-71
2022/09/05 12:07:04;;;;;;;2.55;0.85;;;31.50;95.60;31.30;101768.00;;;;5035586;28;20187;-71
2022/09/05 12:09:38;;;;;;;0.17;0.17;;;31.40;95.20;31.30;101765.00;;;;4997987;28;20191;-74
2022/09/05 12:12:23;;;;;;;0.20;0.20;;;30.60;96.20;31.40;101766.00;;;;5035273;28;20190;-71
2022/09/05 12:15:15;;;;;;;0.10;0.10;;;30.10;96.90;33.00;101756.00;;;;5034726;28;20221;-71
2022/09/05 12:17:51;;;;;;;0.10;0.10;;;31.00;96.40;32.90;101758.00;;;;5034332;28;20553;-71
2022/09/05 12:20:38;;;;;;;0.10;0.10;;;31.30;95.20;33.20;101741.00;;;;5034081;28;20182;-74
2022/09/05 12:23:35;;;;;;;0.10;0.10;;;31.60;95.40;33.50;101741.00;;;;5032657;28;20538;-74
2022/09/05 12:26:29;;;;;;;0.10;0.10;;;31.90;94.80;33.70;101719.00;;;;5034216;28;20218;-74
2022/09/05 12:29:17;;;;;;;0.10;0.10;;;32.00;94.30;33.00;101720.00;;;;5034241;28;20211;-74
2022/09/05 12:31:58;;;;;;;0.10;0.10;;;32.00;93.90;33.20;101741.00;;;;5033967;28;20708;-74
2022/09/05 12:34:50;;;;;;;0.10;0.10;;;32.00;93.60;33.80;101737.00;;;;5034081;28;20296;-74
2022/09/05 12:37:22;;;;;;;0.30;0.30;;;32.00;94.00;33.50;101728.00;;;;5033606;28;20191;-74
2022/09/05 12:40:13;;;;;;;0.20;0.20;;;32.00;94.00;32.30;101735.00;;;;5034978;28;20182;-74
2022/09/05 12:43:08;;;;;;;0.10;0.10;;;31.80;93.70;33.20;101741.00;;;;5034464;28;20325;-71
2022/09/05 12:46:02;;;;;;;0.10;0.10;;;31.70;94.30;33.80;101710.00;;;;5015021;28;20191;-72
2022/09/05 12:48:54;;;;;;;0.10;0.10;;;32.00;94.00;33.60;101734.00;;;;5034759;28;20201;-74
2022/09/05 12:51:23;;;;;;;0.20;0.17;;;31.90;93.90;33.10;101729.00;;;;5049500;28;20237;-72
2022/09/05 12:53:59;;;;;;;0.10;0.10;;;31.90;93.20;31.60;101739.00;;;;5017018;28;20206;-72
2022/09/05 12:56:54;;;;;;;2.40;1.58;;;31.30;93.30;32.40;101743.00;;;;5032925;28;20187;-72